sensor_id;sensor_type;location;lat;lon;timestamp;pressure;altitude;pressure_sealevel;temperature;humidity
65173;BME280;51758;52.218;5.172;2023-02-24T00:01:48;100325.16;;;2.45;100.00
65173;BME280;51758;52.218;5.172;2023-02-24T00:04:19;100389.78;;;2.91;100.00
65173;BME280;51758;52.218;5.172;2023-02-24T00:06:48;100388.97;;;2.90;100.00
65173;BME280;51758;52.218;5.172;2023-02-24T00:09:18;100389.34;;;2.95;100.00
65173;BME280;51758;52.218;5.172;2023-02-24T00:11:47;100394.38;;;2.97;100.00
65173;BME280;51758;52.218;5.172;2023-02-24T00:14:19;100387.72;;;2.94;100.00
65173;BME280;51758;52.218;5.172;2023-02-24T00:16:47;100385.94;;;2.95;100.00
65173;BME280;51758;52.218;5.172;2023-02-24T00:19:17;100389.47;;;2.94;100.00
65173;BME280;51758;52.218;5.172;2023-02-24T00:21:46;100382.44;;;2.96;100.00
65173;BME280;51758;52.218;5.172;2023-02-24T00:24:15;100390.28;;;2.94;100.00
65173;BME280;51758;52.218;5.172;2023-02-24T00:26:43;100392.50;;;2.89;100.00
65173;BME280;51758;52.218;5.172;2023-02-24T00:29:13;100394.94;;;2.91;100.00
65173;BME280;51758;52.218;5.172;2023-02-24T00:31:41;100395.22;;;2.87;100.00
65173;BME280;51758;52.218;5.172;2023-02-24T00:34:10;100397.09;;;2.85;100.00
65173;BME280;51758;52.218;5.172;2023-02-24T00:36:40;100389.25;;;2.87;100.00
65173;BME280;51758;52.218;5.172;2023-02-24T00:39:08;100397.38;;;2.82;100.00
65173;BME280;51758;52.218;5.172;2023-02-24T00:41:39;100390.09;;;2.78;100.00
65173;BME280;51758;52.218;5.172;2023-02-24T00:44:10;100392.78;;;2.86;100.00
65173;BME280;51758;52.218;5.172;2023-02-24T00:46:40;100375.81;;;2.83;100.00
65173;BME280;51758;52.218;5.172;2023-02-24T00:49:11;100382.69;;;2.93;100.00
65173;BME280;51758;52.218;5.172;2023-02-24T00:51:44;100380.13;;;2.93;100.00
65173;BME280;51758;52.218;5.172;2023-02-24T00:54:14;100380.81;;;2.85;100.00
65173;BME280;51758;52.218;5.172;2023-02-24T00:56:45;100286.00;;;2.23;100.00
65173;BME280;51758;52.218;5.172;2023-02-24T00:59:15;100370.03;;;2.62;100.00
65173;BME280;51758;52.218;5.172;2023-02-24T01:01:44;100374.75;;;2.67;100.00
65173;BME280;51758;52.218;5.172;2023-02-24T01:04:15;100357.00;;;2.54;100.00
65173;BME280;51758;52.218;5.172;2023-02-24T01:06:46;100360.25;;;2.66;100.00
65173;BME280;51758;52.218;5.172;2023-02-24T01:09:16;100355.38;;;2.63;100.00
65173;BME280;51758;52.218;5.172;2023-02-24T01:11:48;100354.81;;;2.59;100.00
65173;BME280;51758;52.218;5.172;2023-02-24T01:14:51;100331.25;;;2.44;100.00
65173;BME280;51758;52.218;5.172;2023-02-24T01:17:19;100339.25;;;2.41;100.00
65173;BME280;51758;52.218;5.172;2023-02-24T01:19:47;100358.09;;;2.32;100.00
65173;BME280;51758;52.218;5.172;2023-02-24T01:22:17;100339.81;;;2.35;100.00
65173;BME280;51758;52.218;5.172;2023-02-24T01:24:46;100331.66;;;2.30;100.00
65173;BME280;51758;52.218;5.172;2023-02-24T01:27:17;100328.28;;;2.30;100.00
65173;BME280;51758;52.218;5.172;2023-02-24T01:29:45;100277.75;;;2.00;100.00
65173;BME280;51758;52.218;5.172;2023-02-24T01:32:15;100313.66;;;2.21;100.00
65173;BME280;51758;52.218;5.172;2023-02-24T01:34:44;100308.66;;;2.09;100.00
65173;BME280;51758;52.218;5.172;2023-02-24T01:37:12;100211.50;;;1.54;100.00
65173;BME280;51758;52.218;5.172;2023-02-24T01:39:42;100285.47;;;2.19;100.00
65173;BME280;51758;52.218;5.172;2023-02-24T01:42:12;100282.34;;;2.25;100.00
65173;BME280;51758;52.218;5.172;2023-02-24T01:47:50;100268.38;;;2.28;100.00
65173;BME280;51758;52.218;5.172;2023-02-24T01:50:21;100263.34;;;2.16;100.00
65173;BME280;51758;52.218;5.172;2023-02-24T01:52:56;100269.47;;;2.15;100.00
65173;BME280;51758;52.218;5.172;2023-02-24T01:55:27;100209.09;;;1.71;100.00
65173;BME280;51758;52.218;5.172;2023-02-24T01:57:59;100198.13;;;1.50;100.00
65173;BME280;51758;52.218;5.172;2023-02-24T02:00:29;100262.31;;;2.00;100.00
65173;BME280;51758;52.218;5.172;2023-02-24T02:03:10;100254.59;;;2.00;100.00
65173;BME280;51758;52.218;5.172;2023-02-24T02:05:41;100255.66;;;1.97;100.00
65173;BME280;51758;52.218;5.172;2023-02-24T02:08:11;100257.16;;;2.00;100.00
65173;BME280;51758;52.218;5.172;2023-02-24T02:10:42;100250.66;;;1.86;100.00
65173;BME280;51758;52.218;5.172;2023-02-24T02:13:11;100188.91;;;1.48;100.00
65173;BME280;51758;52.218;5.172;2023-02-24T02:15:56;100245.09;;;1.81;100.00
65173;BME280;51758;52.218;5.172;2023-02-24T02:18:35;100249.16;;;1.84;100.00
65173;BME280;51758;52.218;5.172;2023-02-24T02:21:39;100235.78;;;1.90;100.00
65173;BME280;51758;52.218;5.172;2023-02-24T02:24:28;100224.50;;;1.91;100.00
65173;BME280;51758;52.218;5.172;2023-02-24T02:27:09;100223.97;;;1.87;100.00
65173;BME280;51758;52.218;5.172;2023-02-24T02:30:09;100214.34;;;1.79;100.00
65173;BME280;51758;52.218;5.172;2023-02-24T02:35:56;100211.50;;;1.83;100.00
65173;BME280;51758;52.218;5.172;2023-02-24T02:38:31;100187.41;;;1.74;100.00
65173;BME280;51758;52.218;5.172;2023-02-24T02:41:06;100178.19;;;1.71;100.00
65173;BME280;51758;52.218;5.172;2023-02-24T02:43:38;100184.41;;;1.78;100.00
65173;BME280;51758;52.218;5.172;2023-02-24T02:46:12;100194.97;;;1.85;100.00
65173;BME280;51758;52.218;5.172;2023-02-24T02:48:46;100203.09;;;1.80;100.00
65173;BME280;51758;52.218;5.172;2023-02-24T02:51:18;100190.66;;;1.86;100.00
65173;BME280;51758;52.218;5.172;2023-02-24T02:53:52;100173.56;;;1.85;100.00
65173;BME280;51758;52.218;5.172;2023-02-24T02:56:25;100182.34;;;1.92;100.00
65173;BME280;51758;52.218;5.172;2023-02-24T02:58:57;100013.66;;;0.94;100.00
65173;BME280;51758;52.218;5.172;2023-02-24T03:01:28;100175.28;;;2.03;100.00
65173;BME280;51758;52.218;5.172;2023-02-24T03:04:01;100182.09;;;1.95;100.00
65173;BME280;51758;52.218;5.172;2023-02-24T03:06:34;100139.75;;;1.60;100.00
65173;BME280;51758;52.218;5.172;2023-02-24T03:09:06;100163.00;;;1.88;100.00
65173;BME280;51758;52.218;5.172;2023-02-24T03:11:38;100161.13;;;1.90;100.00
65173;BME280;51758;52.218;5.172;2023-02-24T03:14:06;100168.69;;;1.91;100.00
65173;BME280;51758;52.218;5.172;2023-02-24T03:16:39;100160.00;;;2.02;100.00
65173;BME280;51758;52.218;5.172;2023-02-24T03:19:10;100158.50;;;1.99;100.00
65173;BME280;51758;52.218;5.172;2023-02-24T03:21:43;100113.88;;;1.71;100.00
65173;BME280;51758;52.218;5.172;2023-02-24T03:24:12;100055.41;;;1.44;100.00
65173;BME280;51758;52.218;5.172;2023-02-24T03:26:45;99980.66;;;1.09;100.00
65173;BME280;51758;52.218;5.172;2023-02-24T03:29:17;100146.41;;;2.09;100.00
65173;BME280;51758;52.218;5.172;2023-02-24T03:31:50;100142.75;;;2.12;100.00
65173;BME280;51758;52.218;5.172;2023-02-24T03:34:23;100128.84;;;1.95;100.00
65173;BME280;51758;52.218;5.172;2023-02-24T03:36:55;100150.47;;;2.12;100.00
65173;BME280;51758;52.218;5.172;2023-02-24T03:39:24;100160.06;;;2.20;100.00
65173;BME280;51758;52.218;5.172;2023-02-24T03:41:54;100030.09;;;1.40;100.00
65173;BME280;51758;52.218;5.172;2023-02-24T03:44:22;100165.03;;;2.40;100.00
65173;BME280;51758;52.218;5.172;2023-02-24T03:46:50;100165.13;;;2.48;100.00
65173;BME280;51758;52.218;5.172;2023-02-24T03:49:21;100129.16;;;2.20;100.00
65173;BME280;51758;52.218;5.172;2023-02-24T03:51:58;100183.56;;;2.44;100.00
65173;BME280;51758;52.218;5.172;2023-02-24T03:54:46;100200.13;;;2.41;100.00
65173;BME280;51758;52.218;5.172;2023-02-24T03:57:20;100198.22;;;2.43;100.00
65173;BME280;51758;52.218;5.172;2023-02-24T03:59:57;100168.25;;;2.42;100.00
65173;BME280;51758;52.218;5.172;2023-02-24T04:02:57;100194.16;;;2.50;100.00
65173;BME280;51758;52.218;5.172;2023-02-24T04:05:30;100184.50;;;2.53;100.00
65173;BME280;51758;52.218;5.172;2023-02-24T04:08:03;100203.78;;;2.48;100.00
65173;BME280;51758;52.218;5.172;2023-02-24T04:10:40;100201.88;;;2.50;100.00
65173;BME280;51758;52.218;5.172;2023-02-24T04:13:22;100200.81;;;2.43;100.00
65173;BME280;51758;52.218;5.172;2023-02-24T04:15:58;100178.53;;;2.52;100.00
65173;BME280;51758;52.218;5.172;2023-02-24T04:18:30;100173.91;;;2.56;100.00
65173;BME280;51758;52.218;5.172;2023-02-24T04:21:00;100173.72;;;2.39;100.00
65173;BME280;51758;52.218;5.172;2023-02-24T04:23:34;100166.78;;;2.40;100.00
65173;BME280;51758;52.218;5.172;2023-02-24T04:26:05;100168.06;;;2.26;100.00
65173;BME280;51758;52.218;5.172;2023-02-24T04:28:35;100162.88;;;2.36;100.00
65173;BME280;51758;52.218;5.172;2023-02-24T04:31:06;100171.59;;;2.25;100.00
65173;BME280;51758;52.218;5.172;2023-02-24T04:33:36;100150.53;;;2.30;100.00
65173;BME280;51758;52.218;5.172;2023-02-24T04:36:05;100144.31;;;2.32;100.00
65173;BME280;51758;52.218;5.172;2023-02-24T04:38:35;100145.53;;;2.28;100.00
65173;BME280;51758;52.218;5.172;2023-02-24T04:41:03;100137.81;;;2.28;100.00
65173;BME280;51758;52.218;5.172;2023-02-24T04:43:31;100090.94;;;1.88;100.00
65173;BME280;51758;52.218;5.172;2023-02-24T04:45:59;100117.38;;;2.17;100.00
65173;BME280;51758;52.218;5.172;2023-02-24T04:48:33;100129.28;;;2.28;100.00
65173;BME280;51758;52.218;5.172;2023-02-24T04:51:01;100139.16;;;2.32;100.00
65173;BME280;51758;52.218;5.172;2023-02-24T04:53:32;100133.03;;;2.33;100.00
65173;BME280;51758;52.218;5.172;2023-02-24T04:56:04;100137.91;;;2.36;100.00
65173;BME280;51758;52.218;5.172;2023-02-24T04:58:36;100118.00;;;2.29;100.00
65173;BME280;51758;52.218;5.172;2023-02-24T05:01:08;100115.00;;;2.33;100.00
65173;BME280;51758;52.218;5.172;2023-02-24T05:03:37;100115.69;;;2.35;100.00
65173;BME280;51758;52.218;5.172;2023-02-24T05:06:12;100101.47;;;2.31;100.00
65173;BME280;51758;52.218;5.172;2023-02-24T05:08:41;100099.84;;;2.30;100.00
65173;BME280;51758;52.218;5.172;2023-02-24T05:11:12;100095.91;;;2.36;100.00
65173;BME280;51758;52.218;5.172;2023-02-24T05:13:42;100021.03;;;1.83;100.00
65173;BME280;51758;52.218;5.172;2023-02-24T05:16:13;100040.75;;;2.01;100.00
65173;BME280;51758;52.218;5.172;2023-02-24T05:18:42;100011.78;;;1.99;100.00
65173;BME280;51758;52.218;5.172;2023-02-24T05:21:12;100085.00;;;2.42;100.00
65173;BME280;51758;52.218;5.172;2023-02-24T05:23:58;100079.03;;;2.41;100.00
65173;BME280;51758;52.218;5.172;2023-02-24T05:26:34;100076.63;;;2.40;100.00
65173;BME280;51758;52.218;5.172;2023-02-24T05:29:03;100065.06;;;2.44;100.00
65173;BME280;51758;52.218;5.172;2023-02-24T05:31:32;100051.28;;;2.35;100.00
65173;BME280;51758;52.218;5.172;2023-02-24T05:34:01;100060.38;;;2.30;100.00
65173;BME280;51758;52.218;5.172;2023-02-24T05:36:32;99993.81;;;1.90;100.00
65173;BME280;51758;52.218;5.172;2023-02-24T05:39:01;100033.47;;;2.24;100.00
65173;BME280;51758;52.218;5.172;2023-02-24T05:41:35;100037.81;;;2.41;100.00
65173;BME280;51758;52.218;5.172;2023-02-24T05:44:06;100033.06;;;2.46;100.00
65173;BME280;51758;52.218;5.172;2023-02-24T05:46:37;100037.25;;;2.47;100.00
65173;BME280;51758;52.218;5.172;2023-02-24T05:49:07;100037.03;;;2.59;100.00
65173;BME280;51758;52.218;5.172;2023-02-24T05:51:38;100018.13;;;2.50;100.00
65173;BME280;51758;52.218;5.172;2023-02-24T05:54:11;100027.25;;;2.62;100.00
65173;BME280;51758;52.218;5.172;2023-02-24T05:56:41;100029.84;;;2.62;100.00
65173;BME280;51758;52.218;5.172;2023-02-24T05:59:11;100017.75;;;2.63;100.00
65173;BME280;51758;52.218;5.172;2023-02-24T06:01:43;100011.72;;;2.72;100.00
65173;BME280;51758;52.218;5.172;2023-02-24T06:04:13;99985.56;;;2.67;100.00
65173;BME280;51758;52.218;5.172;2023-02-24T06:06:47;100002.59;;;2.77;100.00
65173;BME280;51758;52.218;5.172;2023-02-24T06:09:18;100025.28;;;2.74;100.00
65173;BME280;51758;52.218;5.172;2023-02-24T06:11:50;100007.22;;;2.74;100.00
65173;BME280;51758;52.218;5.172;2023-02-24T06:14:17;100008.75;;;2.84;100.00
65173;BME280;51758;52.218;5.172;2023-02-24T06:16:46;100004.50;;;2.75;100.00
65173;BME280;51758;52.218;5.172;2023-02-24T06:19:14;99994.91;;;2.85;100.00
65173;BME280;51758;52.218;5.172;2023-02-24T06:21:43;99997.34;;;2.87;100.00
65173;BME280;51758;52.218;5.172;2023-02-24T06:24:12;99990.13;;;2.91;100.00
65173;BME280;51758;52.218;5.172;2023-02-24T06:26:40;99983.22;;;2.91;100.00
65173;BME280;51758;52.218;5.172;2023-02-24T06:29:15;100008.09;;;3.00;100.00
65173;BME280;51758;52.218;5.172;2023-02-24T06:31:43;99970.66;;;2.96;100.00
65173;BME280;51758;52.218;5.172;2023-02-24T06:34:14;99855.47;;;2.27;100.00
65173;BME280;51758;52.218;5.172;2023-02-24T06:36:43;99944.38;;;2.93;100.00
65173;BME280;51758;52.218;5.172;2023-02-24T06:39:12;99955.91;;;3.06;100.00
65173;BME280;51758;52.218;5.172;2023-02-24T06:41:40;99808.22;;;2.19;100.00
65173;BME280;51758;52.218;5.172;2023-02-24T06:44:08;99885.94;;;2.75;100.00
65173;BME280;51758;52.218;5.172;2023-02-24T06:46:37;99937.56;;;3.09;100.00
65173;BME280;51758;52.218;5.172;2023-02-24T06:49:05;99929.41;;;3.22;100.00
65173;BME280;51758;52.218;5.172;2023-02-24T06:51:32;99940.19;;;3.17;100.00
65173;BME280;51758;52.218;5.172;2023-02-24T06:54:00;99940.50;;;3.14;100.00
65173;BME280;51758;52.218;5.172;2023-02-24T06:56:28;99940.84;;;3.19;100.00
65173;BME280;51758;52.218;5.172;2023-02-24T06:58:57;99934.31;;;3.33;100.00
65173;BME280;51758;52.218;5.172;2023-02-24T07:01:26;99797.28;;;2.42;100.00
65173;BME280;51758;52.218;5.172;2023-02-24T07:03:57;99907.00;;;3.22;100.00
65173;BME280;51758;52.218;5.172;2023-02-24T07:06:47;99919.59;;;3.26;100.00
65173;BME280;51758;52.218;5.172;2023-02-24T07:09:19;99899.94;;;3.24;100.00
65173;BME280;51758;52.218;5.172;2023-02-24T07:11:48;99887.16;;;3.15;100.00
65173;BME280;51758;52.218;5.172;2023-02-24T07:14:19;99907.38;;;3.28;100.00
65173;BME280;51758;52.218;5.172;2023-02-24T07:16:47;99900.09;;;3.31;100.00
65173;BME280;51758;52.218;5.172;2023-02-24T07:19:22;99900.31;;;3.38;100.00
65173;BME280;51758;52.218;5.172;2023-02-24T07:21:54;99824.97;;;2.92;100.00
65173;BME280;51758;52.218;5.172;2023-02-24T07:24:26;99884.19;;;3.36;100.00
65173;BME280;51758;52.218;5.172;2023-02-24T07:27:03;99860.13;;;3.27;100.00
65173;BME280;51758;52.218;5.172;2023-02-24T07:29:33;99863.03;;;3.32;100.00
65173;BME280;51758;52.218;5.172;2023-02-24T07:32:02;99862.59;;;3.45;100.00
65173;BME280;51758;52.218;5.172;2023-02-24T07:34:32;99859.22;;;3.44;100.00
65173;BME280;51758;52.218;5.172;2023-02-24T07:37:07;99854.41;;;3.49;100.00
65173;BME280;51758;52.218;5.172;2023-02-24T07:39:35;99847.78;;;3.55;100.00
65173;BME280;51758;52.218;5.172;2023-02-24T07:42:05;99849.75;;;3.53;100.00
65173;BME280;51758;52.218;5.172;2023-02-24T07:44:33;99840.38;;;3.52;100.00
65173;BME280;51758;52.218;5.172;2023-02-24T07:47:00;99829.75;;;3.63;100.00
65173;BME280;51758;52.218;5.172;2023-02-24T07:49:35;99811.50;;;3.56;100.00
65173;BME280;51758;52.218;5.172;2023-02-24T07:52:04;99811.03;;;3.69;100.00
65173;BME280;51758;52.218;5.172;2023-02-24T07:54:33;99815.25;;;3.62;100.00
65173;BME280;51758;52.218;5.172;2023-02-24T07:57:01;99802.03;;;3.65;100.00
65173;BME280;51758;52.218;5.172;2023-02-24T07:59:31;99784.56;;;3.59;100.00
65173;BME280;51758;52.218;5.172;2023-02-24T08:01:59;99785.06;;;3.71;100.00
65173;BME280;51758;52.218;5.172;2023-02-24T08:04:31;99733.94;;;3.50;100.00
65173;BME280;51758;52.218;5.172;2023-02-24T08:07:00;99776.22;;;3.81;100.00
65173;BME280;51758;52.218;5.172;2023-02-24T08:09:30;99747.97;;;3.72;100.00
65173;BME280;51758;52.218;5.172;2023-02-24T08:12:34;99757.34;;;3.89;100.00
65173;BME280;51758;52.218;5.172;2023-02-24T08:15:02;99743.94;;;3.93;100.00
65173;BME280;51758;52.218;5.172;2023-02-24T08:17:42;99725.25;;;3.91;100.00
65173;BME280;51758;52.218;5.172;2023-02-24T08:20:12;99710.56;;;3.92;100.00
65173;BME280;51758;52.218;5.172;2023-02-24T08:22:53;99706.81;;;3.94;100.00
65173;BME280;51758;52.218;5.172;2023-02-24T08:25:23;99687.31;;;3.92;100.00
65173;BME280;51758;52.218;5.172;2023-02-24T08:27:52;99686.81;;;3.96;100.00
65173;BME280;51758;52.218;5.172;2023-02-24T08:30:40;99672.06;;;4.21;100.00
65173;BME280;51758;52.218;5.172;2023-02-24T08:33:13;99663.09;;;4.01;100.00
65173;BME280;51758;52.218;5.172;2023-02-24T08:35:43;99653.56;;;4.02;100.00
65173;BME280;51758;52.218;5.172;2023-02-24T08:38:14;99647.06;;;4.06;100.00
65173;BME280;51758;52.218;5.172;2023-02-24T08:40:44;99627.41;;;4.05;100.00
65173;BME280;51758;52.218;5.172;2023-02-24T08:43:23;99623.31;;;4.18;100.00
65173;BME280;51758;52.218;5.172;2023-02-24T08:46:12;99615.88;;;4.23;100.00
65173;BME280;51758;52.218;5.172;2023-02-24T08:48:46;99597.63;;;4.25;100.00
65173;BME280;51758;52.218;5.172;2023-02-24T08:51:16;99590.00;;;4.31;100.00
65173;BME280;51758;52.218;5.172;2023-02-24T08:53:52;99579.19;;;4.36;100.00
65173;BME280;51758;52.218;5.172;2023-02-24T08:56:22;99536.44;;;4.25;100.00
65173;BME280;51758;52.218;5.172;2023-02-24T08:58:54;99553.91;;;4.46;100.00
65173;BME280;51758;52.218;5.172;2023-02-24T09:01:32;99538.25;;;4.48;100.00
65173;BME280;51758;52.218;5.172;2023-02-24T09:04:02;99494.78;;;4.28;100.00
65173;BME280;51758;52.218;5.172;2023-02-24T09:06:38;99495.28;;;4.47;100.00
65173;BME280;51758;52.218;5.172;2023-02-24T09:09:10;99478.63;;;4.26;100.00
65173;BME280;51758;52.218;5.172;2023-02-24T09:11:48;99486.06;;;4.52;100.00
65173;BME280;51758;52.218;5.172;2023-02-24T09:14:23;99480.34;;;4.57;100.00
65173;BME280;51758;52.218;5.172;2023-02-24T09:16:56;99463.06;;;4.57;100.00
65173;BME280;51758;52.218;5.172;2023-02-24T09:19:37;99436.63;;;4.55;100.00
65173;BME280;51758;52.218;5.172;2023-02-24T09:22:23;99420.41;;;4.61;100.00
65173;BME280;51758;52.218;5.172;2023-02-24T09:25:09;99397.75;;;4.63;100.00
65173;BME280;51758;52.218;5.172;2023-02-24T09:27:51;99387.13;;;4.58;100.00
65173;BME280;51758;52.218;5.172;2023-02-24T09:30:24;99363.94;;;4.50;100.00
65173;BME280;51758;52.218;5.172;2023-02-24T09:33:11;99344.97;;;4.58;100.00
65173;BME280;51758;52.218;5.172;2023-02-24T09:35:51;99331.78;;;4.53;100.00
65173;BME280;51758;52.218;5.172;2023-02-24T09:38:20;99308.63;;;4.59;100.00
65173;BME280;51758;52.218;5.172;2023-02-24T09:41:20;99288.41;;;4.63;100.00
65173;BME280;51758;52.218;5.172;2023-02-24T09:43:58;99267.00;;;4.69;100.00
65173;BME280;51758;52.218;5.172;2023-02-24T09:46:33;99222.34;;;4.46;100.00
65173;BME280;51758;52.218;5.172;2023-02-24T09:49:10;99162.13;;;4.30;100.00
65173;BME280;51758;52.218;5.172;2023-02-24T09:51:39;99188.28;;;4.57;100.00
65173;BME280;51758;52.218;5.172;2023-02-24T09:54:15;99171.28;;;4.62;100.00
65173;BME280;51758;52.218;5.172;2023-02-24T09:56:50;99136.75;;;4.70;100.00
65173;BME280;51758;52.218;5.172;2023-02-24T09:59:43;99068.97;;;4.53;100.00
65173;BME280;51758;52.218;5.172;2023-02-24T10:02:36;99055.81;;;4.69;100.00
65173;BME280;51758;52.218;5.172;2023-02-24T10:05:20;99005.13;;;4.68;100.00
65173;BME280;51758;52.218;5.172;2023-02-24T10:07:53;98971.13;;;4.72;100.00
65173;BME280;51758;52.218;5.172;2023-02-24T10:10:25;98950.34;;;4.80;100.00
65173;BME280;51758;52.218;5.172;2023-02-24T10:13:00;98910.78;;;4.86;100.00
65173;BME280;51758;52.218;5.172;2023-02-24T10:15:40;98868.69;;;4.92;100.00
65173;BME280;51758;52.218;5.172;2023-02-24T10:18:30;98799.16;;;4.48;100.00
65173;BME280;51758;52.218;5.172;2023-02-24T10:21:15;98819.13;;;4.88;100.00
65173;BME280;51758;52.218;5.172;2023-02-24T10:23:54;98790.31;;;4.91;100.00
65173;BME280;51758;52.218;5.172;2023-02-24T10:26:31;98756.88;;;4.96;100.00
65173;BME280;51758;52.218;5.172;2023-02-24T10:29:36;98687.31;;;5.01;100.00
65173;BME280;51758;52.218;5.172;2023-02-24T10:32:17;98680.53;;;5.00;100.00
65173;BME280;51758;52.218;5.172;2023-02-24T10:34:49;98639.53;;;4.91;100.00
65173;BME280;51758;52.218;5.172;2023-02-24T10:37:19;98581.97;;;4.69;100.00
65173;BME280;51758;52.218;5.172;2023-02-24T10:39:56;98616.50;;;5.16;100.00
65173;BME280;51758;52.218;5.172;2023-02-24T10:42:26;98590.81;;;5.21;100.00
65173;BME280;51758;52.218;5.172;2023-02-24T10:45:10;98566.75;;;5.27;100.00
65173;BME280;51758;52.218;5.172;2023-02-24T10:47:49;98505.28;;;5.16;100.00
65173;BME280;51758;52.218;5.172;2023-02-24T10:50:23;98498.50;;;5.34;100.00
65173;BME280;51758;52.218;5.172;2023-02-24T10:52:53;98479.41;;;5.22;100.00
65173;BME280;51758;52.218;5.172;2023-02-24T10:56:02;98356.75;;;4.65;100.00
65173;BME280;51758;52.218;5.172;2023-02-24T10:58:59;98479.94;;;5.57;100.00
65173;BME280;51758;52.218;5.172;2023-02-24T11:01:52;98449.66;;;5.58;100.00
65173;BME280;51758;52.218;5.172;2023-02-24T11:04:32;98441.34;;;5.49;100.00
65173;BME280;51758;52.218;5.172;2023-02-24T11:07:19;98421.97;;;5.65;100.00
65173;BME280;51758;52.218;5.172;2023-02-24T11:10:12;98394.06;;;5.73;100.00
65173;BME280;51758;52.218;5.172;2023-02-24T11:12:45;98388.47;;;5.76;100.00
65173;BME280;51758;52.218;5.172;2023-02-24T11:15:37;98377.31;;;5.76;100.00
65173;BME280;51758;52.218;5.172;2023-02-24T11:18:28;98369.16;;;5.79;100.00
65173;BME280;51758;52.218;5.172;2023-02-24T11:20:58;98356.16;;;5.86;100.00
65173;BME280;51758;52.218;5.172;2023-02-24T11:23:28;98330.84;;;5.94;100.00
65173;BME280;51758;52.218;5.172;2023-02-24T11:26:00;98312.47;;;6.02;100.00
65173;BME280;51758;52.218;5.172;2023-02-24T11:28:42;98312.25;;;6.04;100.00
65173;BME280;51758;52.218;5.172;2023-02-24T11:31:24;98297.78;;;6.21;100.00
65173;BME280;51758;52.218;5.172;2023-02-24T11:34:03;98284.47;;;6.18;100.00
65173;BME280;51758;52.218;5.172;2023-02-24T11:36:40;98284.19;;;6.26;100.00
65173;BME280;51758;52.218;5.172;2023-02-24T11:39:25;98283.88;;;6.40;100.00
65173;BME280;51758;52.218;5.172;2023-02-24T11:41:59;98270.22;;;6.52;100.00
65173;BME280;51758;52.218;5.172;2023-02-24T11:44:31;98279.63;;;6.46;100.00
65173;BME280;51758;52.218;5.172;2023-02-24T11:47:03;98266.41;;;6.72;100.00
65173;BME280;51758;52.218;5.172;2023-02-24T11:49:39;98268.34;;;6.77;100.00
65173;BME280;51758;52.218;5.172;2023-02-24T11:52:13;98244.66;;;6.73;100.00
65173;BME280;51758;52.218;5.172;2023-02-24T11:54:46;98265.13;;;7.00;100.00
65173;BME280;51758;52.218;5.172;2023-02-24T11:57:18;98228.31;;;6.73;100.00
65173;BME280;51758;52.218;5.172;2023-02-24T11:59:50;98265.53;;;7.15;100.00
65173;BME280;51758;52.218;5.172;2023-02-24T12:02:28;98275.00;;;7.39;100.00
65173;BME280;51758;52.218;5.172;2023-02-24T12:05:07;98289.88;;;7.32;100.00
65173;BME280;51758;52.218;5.172;2023-02-24T12:07:40;98288.53;;;7.30;100.00
65173;BME280;51758;52.218;5.172;2023-02-24T12:10:15;98329.06;;;7.61;100.00
65173;BME280;51758;52.218;5.172;2023-02-24T12:12:49;98361.16;;;7.48;100.00
65173;BME280;51758;52.218;5.172;2023-02-24T12:15:21;98379.69;;;7.70;100.00
65173;BME280;51758;52.218;5.172;2023-02-24T12:17:54;98392.47;;;8.01;100.00
65173;BME280;51758;52.218;5.172;2023-02-24T12:20:28;98440.91;;;7.96;100.00
65173;BME280;51758;52.218;5.172;2023-02-24T12:23:00;98401.28;;;8.00;100.00
65173;BME280;51758;52.218;5.172;2023-02-24T12:25:33;98478.94;;;8.56;100.00
65173;BME280;51758;52.218;5.172;2023-02-24T12:28:10;98511.41;;;8.66;100.00
65173;BME280;51758;52.218;5.172;2023-02-24T12:30:50;98563.91;;;8.44;100.00
65173;BME280;51758;52.218;5.172;2023-02-24T12:33:36;98581.78;;;8.52;100.00
65173;BME280;51758;52.218;5.172;2023-02-24T12:36:16;98624.34;;;9.18;100.00
65173;BME280;51758;52.218;5.172;2023-02-24T12:38:53;98641.63;;;9.42;100.00
65173;BME280;51758;52.218;5.172;2023-02-24T12:41:34;98679.81;;;9.48;100.00
65173;BME280;51758;52.218;5.172;2023-02-24T12:44:15;98757.97;;;9.30;100.00
65173;BME280;51758;52.218;5.172;2023-02-24T12:46:52;98780.66;;;10.13;100.00
65173;BME280;51758;52.218;5.172;2023-02-24T12:49:35;98863.03;;;10.02;100.00
65173;BME280;51758;52.218;5.172;2023-02-24T12:52:15;98931.59;;;10.21;100.00
65173;BME280;51758;52.218;5.172;2023-02-24T12:54:52;99014.38;;;10.07;100.00
65173;BME280;51758;52.218;5.172;2023-02-24T12:57:26;99072.94;;;9.68;100.00
65173;BME280;51758;52.218;5.172;2023-02-24T13:00:05;99114.81;;;9.73;100.00
65173;BME280;51758;52.218;5.172;2023-02-24T13:02:46;99155.69;;;9.73;100.00
65173;BME280;51758;52.218;5.172;2023-02-24T13:05:21;99132.97;;;9.30;100.00
65173;BME280;51758;52.218;5.172;2023-02-24T13:08:08;99180.66;;;9.55;100.00
65173;BME280;51758;52.218;5.172;2023-02-24T13:10:42;99204.75;;;9.19;100.00
65173;BME280;51758;52.218;5.172;2023-02-24T13:13:15;99202.75;;;9.15;100.00
65173;BME280;51758;52.218;5.172;2023-02-24T13:15:51;99230.03;;;9.06;100.00
65173;BME280;51758;52.218;5.172;2023-02-24T13:18:23;99228.09;;;8.88;100.00
65173;BME280;51758;52.218;5.172;2023-02-24T13:21:02;99191.41;;;9.03;100.00
65173;BME280;51758;52.218;5.172;2023-02-24T13:23:31;99199.81;;;9.05;100.00
65173;BME280;51758;52.218;5.172;2023-02-24T13:25:59;99224.72;;;8.74;100.00
65173;BME280;51758;52.218;5.172;2023-02-24T13:28:28;99233.44;;;8.42;100.00
65173;BME280;51758;52.218;5.172;2023-02-24T13:30:59;99238.22;;;8.18;100.00
65173;BME280;51758;52.218;5.172;2023-02-24T13:33:30;99228.44;;;7.94;100.00
65173;BME280;51758;52.218;5.172;2023-02-24T13:36:14;99168.28;;;7.58;100.00
65173;BME280;51758;52.218;5.172;2023-02-24T13:38:45;99204.84;;;7.69;100.00